Tropical Cyclones
[Index]
Main Index Home Page Stock Weather Photos Extreme Storms Discussion Storm News and Storm Chasing Reports Tropical Cyclones / Hurricanes / Typhoons Weather Data and Links Wild Fires / Bushfires Weather Observation Techniques Weather Picture Catalogue Tornado Pictures and Reports Stock Video Footage and DVDs for sale
Season 1957-1958 Tropical Cyclone 195827 Track Map
Season 1957-1958 Summaries: [BoM-AU] [JTWC-AU] [JTWC-SIO] [JTWC-SPAC] [JTWC-SH]
<<- Previous TC | JTWC 1957-1958 Season | Next TC ->>

click for intensity scale information  Lat/long Grid: Show Hide

 Date Labels: Show Hide

Joint Typhoon Warning Centre Cyclone Data

Name: 195827
Number: 334 / 5827

02 Apr 1958 12:00 UTC to 09 Apr 1958 18:00 UTC

    date/time    lat    long     hPa   cat  kts
1958-04-02 12   10.0   159.0                              
1958-04-02 18    9.5   157.4                              
1958-04-03 00    9.8   156.3                              
1958-04-03 06   10.6   155.6                              
1958-04-03 12   11.3   155.7                              
1958-04-03 18   12.1   156.3                              
1958-04-04 00   12.8   157.0                              
1958-04-04 06   13.0   157.9                              
1958-04-04 12   12.9   158.7                              
1958-04-04 18   13.0   159.5                              
1958-04-05 00   13.0   159.9                              
1958-04-05 06   13.0   160.2                              
1958-04-05 12   13.0   160.4                              
1958-04-05 18   13.0   160.7                              
1958-04-06 00   13.0   160.9                              
1958-04-06 06   13.0   161.2                              
1958-04-06 12   13.0   161.5                              
1958-04-06 18   13.0   161.6                              
1958-04-07 00   13.0   162.1                              
1958-04-07 06   13.0   163.3                              
1958-04-07 12   13.1   164.6                              
1958-04-07 18   13.1   165.7                              
1958-04-08 00   13.4   167.1                              
1958-04-08 06   14.1   169.9                              
1958-04-08 12   14.9   173.0                              
1958-04-08 18   15.8   175.7                              
1958-04-09 00   16.5   178.1                              
1958-04-09 06   16.7   179.7                              
1958-04-09 12   16.8   179.1W                             
1958-04-09 18   16.9   178.0W                             
Winds are 1-min average.

Tropical cyclone tracks developed by Michael Bath using data from the Joint Typhoon Warning Centre Best Tracks and Google Maps.


[Australian Severe Weather index] [Copyright Notice] [Email Contacts] [Search This Site] [Privacy Policy]
Document: tropical_cyclone_195827.htm Updated: 18 September 2016